Moretown, Vermont
Current Conditions -  °F | °C
As of 12:51 PM on Wednesday 28 Jan 2015 (Local Time) from KMPV Reporting Station
Clear Clear  
Wind Chill:   Ceiling: Unl
Heat Index: 11°   Visibility: 10mi
Dew Point: -1°   Wind: 7mph
Humidity: 59%   Direction: 320°NW
Pressure: 30.04"   Gusts: NA
Location:  44.25°N, 72.76°W
Report Text: KMPV 281751Z AUTO 32006KT 10SM CLR M12/M18 A3004 RMK AO2 SLP202 T11171183 11117 21156 50003
Loading
Personal Weather Stations






























Interactive Weather Map New forecast layout! Learn more

10-Day Weather Forecast

Advertisements
Track Severe Weather on mobile